sensor_id;sensor_type;location;lat;lon;timestamp;P1;durP1;ratioP1;P2;durP2;ratioP2
37641;SDS011;23486;51.956;5.888;2023-02-24T00:01:16;10.05;;;1.77;;
37641;SDS011;23486;51.956;5.888;2023-02-24T00:03:52;7.40;;;1.60;;
37641;SDS011;23486;51.956;5.888;2023-02-24T00:06:22;9.90;;;1.83;;
37641;SDS011;23486;51.956;5.888;2023-02-24T00:08:49;11.18;;;2.03;;
37641;SDS011;23486;51.956;5.888;2023-02-24T00:11:15;8.65;;;2.20;;
37641;SDS011;23486;51.956;5.888;2023-02-24T00:13:42;10.45;;;1.85;;
37641;SDS011;23486;51.956;5.888;2023-02-24T00:16:11;9.32;;;2.00;;
37641;SDS011;23486;51.956;5.888;2023-02-24T00:18:38;7.82;;;2.67;;
37641;SDS011;23486;51.956;5.888;2023-02-24T00:21:08;8.40;;;1.95;;
37641;SDS011;23486;51.956;5.888;2023-02-24T00:23:39;8.77;;;1.98;;
37641;SDS011;23486;51.956;5.888;2023-02-24T00:26:10;7.25;;;2.00;;
37641;SDS011;23486;51.956;5.888;2023-02-24T00:28:37;9.27;;;1.95;;
37641;SDS011;23486;51.956;5.888;2023-02-24T00:31:04;11.57;;;2.83;;
37641;SDS011;23486;51.956;5.888;2023-02-24T00:33:35;8.63;;;1.85;;
37641;SDS011;23486;51.956;5.888;2023-02-24T00:36:12;12.75;;;1.70;;
37641;SDS011;23486;51.956;5.888;2023-02-24T00:38:48;10.07;;;2.15;;
37641;SDS011;23486;51.956;5.888;2023-02-24T00:41:21;10.02;;;2.55;;
37641;SDS011;23486;51.956;5.888;2023-02-24T00:43:49;9.07;;;2.28;;
37641;SDS011;23486;51.956;5.888;2023-02-24T00:46:15;10.35;;;1.83;;
37641;SDS011;23486;51.956;5.888;2023-02-24T00:48:43;9.15;;;2.20;;
37641;SDS011;23486;51.956;5.888;2023-02-24T00:51:15;8.52;;;2.13;;
37641;SDS011;23486;51.956;5.888;2023-02-24T00:53:48;8.25;;;1.63;;
37641;SDS011;23486;51.956;5.888;2023-02-24T00:56:15;7.80;;;1.55;;
37641;SDS011;23486;51.956;5.888;2023-02-24T00:58:41;8.82;;;2.33;;
37641;SDS011;23486;51.956;5.888;2023-02-24T01:01:15;9.90;;;2.28;;
37641;SDS011;23486;51.956;5.888;2023-02-24T01:03:43;6.20;;;2.05;;
37641;SDS011;23486;51.956;5.888;2023-02-24T01:06:12;8.35;;;1.73;;
37641;SDS011;23486;51.956;5.888;2023-02-24T01:08:38;6.68;;;1.35;;
37641;SDS011;23486;51.956;5.888;2023-02-24T01:11:11;7.47;;;1.58;;
37641;SDS011;23486;51.956;5.888;2023-02-24T01:13:57;9.52;;;1.33;;
37641;SDS011;23486;51.956;5.888;2023-02-24T01:16:23;9.88;;;1.83;;
37641;SDS011;23486;51.956;5.888;2023-02-24T01:18:48;7.95;;;1.10;;
37641;SDS011;23486;51.956;5.888;2023-02-24T01:21:18;6.75;;;1.02;;
37641;SDS011;23486;51.956;5.888;2023-02-24T01:23:48;4.85;;;1.77;;
37641;SDS011;23486;51.956;5.888;2023-02-24T01:26:14;8.07;;;1.42;;
37641;SDS011;23486;51.956;5.888;2023-02-24T01:28:41;7.07;;;1.88;;
37641;SDS011;23486;51.956;5.888;2023-02-24T01:31:09;5.05;;;1.05;;
37641;SDS011;23486;51.956;5.888;2023-02-24T01:33:35;4.10;;;1.35;;
37641;SDS011;23486;51.956;5.888;2023-02-24T01:36:14;8.35;;;1.50;;
37641;SDS011;23486;51.956;5.888;2023-02-24T01:38:41;5.70;;;1.60;;
37641;SDS011;23486;51.956;5.888;2023-02-24T01:41:09;6.68;;;2.05;;
37641;SDS011;23486;51.956;5.888;2023-02-24T01:44:00;7.85;;;2.40;;
37641;SDS011;23486;51.956;5.888;2023-02-24T01:46:30;5.57;;;1.27;;
37641;SDS011;23486;51.956;5.888;2023-02-24T01:48:58;9.50;;;2.25;;
37641;SDS011;23486;51.956;5.888;2023-02-24T01:51:52;9.38;;;2.03;;
37641;SDS011;23486;51.956;5.888;2023-02-24T01:54:27;10.32;;;2.33;;
37641;SDS011;23486;51.956;5.888;2023-02-24T01:56:57;7.65;;;2.60;;
37641;SDS011;23486;51.956;5.888;2023-02-24T01:59:24;11.30;;;2.55;;
37641;SDS011;23486;51.956;5.888;2023-02-24T02:01:54;8.27;;;2.42;;
37641;SDS011;23486;51.956;5.888;2023-02-24T02:07:13;6.65;;;2.05;;
37641;SDS011;23486;51.956;5.888;2023-02-24T02:09:45;9.70;;;1.80;;
37641;SDS011;23486;51.956;5.888;2023-02-24T02:12:12;11.40;;;2.40;;
37641;SDS011;23486;51.956;5.888;2023-02-24T02:14:39;10.50;;;1.92;;
37641;SDS011;23486;51.956;5.888;2023-02-24T02:28:35;9.32;;;1.52;;
37641;SDS011;23486;51.956;5.888;2023-02-24T02:36:53;8.45;;;1.10;;
37641;SDS011;23486;51.956;5.888;2023-02-24T02:45:20;5.97;;;1.45;;
37641;SDS011;23486;51.956;5.888;2023-02-24T02:52:48;6.50;;;1.33;;
37641;SDS011;23486;51.956;5.888;2023-02-24T02:57:48;10.25;;;2.08;;
37641;SDS011;23486;51.956;5.888;2023-02-24T03:00:21;8.93;;;1.30;;
37641;SDS011;23486;51.956;5.888;2023-02-24T03:02:53;9.52;;;1.50;;
37641;SDS011;23486;51.956;5.888;2023-02-24T03:05:24;9.50;;;2.00;;
37641;SDS011;23486;51.956;5.888;2023-02-24T03:08:12;7.68;;;1.88;;
37641;SDS011;23486;51.956;5.888;2023-02-24T03:10:40;9.05;;;1.40;;
37641;SDS011;23486;51.956;5.888;2023-02-24T03:13:09;9.70;;;2.03;;
37641;SDS011;23486;51.956;5.888;2023-02-24T03:15:37;7.40;;;1.67;;
37641;SDS011;23486;51.956;5.888;2023-02-24T03:18:09;7.43;;;1.52;;
37641;SDS011;23486;51.956;5.888;2023-02-24T03:20:49;7.70;;;0.98;;
37641;SDS011;23486;51.956;5.888;2023-02-24T03:23:22;5.22;;;1.30;;
37641;SDS011;23486;51.956;5.888;2023-02-24T03:26:03;7.28;;;1.40;;
37641;SDS011;23486;51.956;5.888;2023-02-24T03:28:33;9.60;;;1.73;;
37641;SDS011;23486;51.956;5.888;2023-02-24T03:31:24;9.50;;;2.08;;
37641;SDS011;23486;51.956;5.888;2023-02-24T03:33:58;5.50;;;1.10;;
37641;SDS011;23486;51.956;5.888;2023-02-24T03:36:30;5.50;;;1.77;;
37641;SDS011;23486;51.956;5.888;2023-02-24T03:38:57;7.43;;;1.35;;
37641;SDS011;23486;51.956;5.888;2023-02-24T03:41:27;6.38;;;1.17;;
37641;SDS011;23486;51.956;5.888;2023-02-24T03:43:55;7.40;;;1.50;;
37641;SDS011;23486;51.956;5.888;2023-02-24T03:46:23;6.35;;;1.33;;
37641;SDS011;23486;51.956;5.888;2023-02-24T03:48:50;5.90;;;1.17;;
37641;SDS011;23486;51.956;5.888;2023-02-24T03:51:21;6.28;;;1.13;;
37641;SDS011;23486;51.956;5.888;2023-02-24T03:54:11;5.97;;;1.33;;
37641;SDS011;23486;51.956;5.888;2023-02-24T04:02:19;11.75;;;1.83;;
37641;SDS011;23486;51.956;5.888;2023-02-24T04:07:42;7.05;;;0.93;;
37641;SDS011;23486;51.956;5.888;2023-02-24T04:13:40;13.40;;;1.67;;
37641;SDS011;23486;51.956;5.888;2023-02-24T04:17:12;10.15;;;1.88;;
37641;SDS011;23486;51.956;5.888;2023-02-24T04:19:13;5.35;;;1.10;;
37641;SDS011;23486;51.956;5.888;2023-02-24T04:21:42;9.07;;;1.20;;
37641;SDS011;23486;51.956;5.888;2023-02-24T04:24:10;5.25;;;1.00;;
37641;SDS011;23486;51.956;5.888;2023-02-24T04:26:40;6.65;;;1.23;;
37641;SDS011;23486;51.956;5.888;2023-02-24T04:29:09;11.50;;;1.48;;
37641;SDS011;23486;51.956;5.888;2023-02-24T04:32:04;7.50;;;1.73;;
37641;SDS011;23486;51.956;5.888;2023-02-24T04:34:31;3.95;;;1.30;;
37641;SDS011;23486;51.956;5.888;2023-02-24T04:36:57;12.15;;;2.50;;
37641;SDS011;23486;51.956;5.888;2023-02-24T04:39:26;6.57;;;1.65;;
37641;SDS011;23486;51.956;5.888;2023-02-24T04:41:52;7.10;;;1.92;;
37641;SDS011;23486;51.956;5.888;2023-02-24T04:44:18;6.68;;;1.75;;
37641;SDS011;23486;51.956;5.888;2023-02-24T04:46:46;8.43;;;2.47;;
37641;SDS011;23486;51.956;5.888;2023-02-24T04:49:17;10.30;;;1.80;;
37641;SDS011;23486;51.956;5.888;2023-02-24T04:51:44;7.53;;;2.88;;
37641;SDS011;23486;51.956;5.888;2023-02-24T04:54:10;9.80;;;2.42;;
37641;SDS011;23486;51.956;5.888;2023-02-24T04:56:41;13.55;;;2.40;;
37641;SDS011;23486;51.956;5.888;2023-02-24T04:59:08;9.43;;;2.30;;
37641;SDS011;23486;51.956;5.888;2023-02-24T05:01:35;11.10;;;3.20;;
37641;SDS011;23486;51.956;5.888;2023-02-24T05:04:05;15.80;;;3.17;;
37641;SDS011;23486;51.956;5.888;2023-02-24T05:06:33;13.32;;;3.60;;
37641;SDS011;23486;51.956;5.888;2023-02-24T05:09:00;11.40;;;3.40;;
37641;SDS011;23486;51.956;5.888;2023-02-24T05:11:34;12.80;;;3.50;;
37641;SDS011;23486;51.956;5.888;2023-02-24T05:14:00;14.35;;;4.32;;
37641;SDS011;23486;51.956;5.888;2023-02-24T05:16:28;9.55;;;2.63;;
37641;SDS011;23486;51.956;5.888;2023-02-24T05:18:54;12.23;;;2.97;;
37641;SDS011;23486;51.956;5.888;2023-02-24T05:21:39;12.05;;;2.65;;
37641;SDS011;23486;51.956;5.888;2023-02-24T05:24:07;10.93;;;3.30;;
37641;SDS011;23486;51.956;5.888;2023-02-24T05:26:35;13.98;;;2.67;;
37641;SDS011;23486;51.956;5.888;2023-02-24T05:29:03;12.40;;;4.10;;
37641;SDS011;23486;51.956;5.888;2023-02-24T05:31:30;18.30;;;3.40;;
37641;SDS011;23486;51.956;5.888;2023-02-24T05:33:57;16.67;;;3.92;;
37641;SDS011;23486;51.956;5.888;2023-02-24T05:36:26;13.02;;;3.92;;
37641;SDS011;23486;51.956;5.888;2023-02-24T05:38:56;16.52;;;4.45;;
37641;SDS011;23486;51.956;5.888;2023-02-24T05:41:22;14.60;;;3.55;;
37641;SDS011;23486;51.956;5.888;2023-02-24T05:43:56;16.92;;;4.57;;
37641;SDS011;23486;51.956;5.888;2023-02-24T05:46:27;10.35;;;3.17;;
37641;SDS011;23486;51.956;5.888;2023-02-24T05:48:58;9.65;;;2.58;;
37641;SDS011;23486;51.956;5.888;2023-02-24T05:51:27;15.45;;;4.65;;
37641;SDS011;23486;51.956;5.888;2023-02-24T05:54:03;16.33;;;3.95;;
37641;SDS011;23486;51.956;5.888;2023-02-24T05:56:30;11.00;;;3.47;;
37641;SDS011;23486;51.956;5.888;2023-02-24T05:59:01;13.82;;;2.85;;
37641;SDS011;23486;51.956;5.888;2023-02-24T06:01:28;7.20;;;2.70;;
37641;SDS011;23486;51.956;5.888;2023-02-24T06:03:59;14.77;;;3.17;;
37641;SDS011;23486;51.956;5.888;2023-02-24T06:06:33;11.02;;;3.42;;
37641;SDS011;23486;51.956;5.888;2023-02-24T06:09:01;12.82;;;3.17;;
37641;SDS011;23486;51.956;5.888;2023-02-24T06:11:32;9.77;;;3.33;;
37641;SDS011;23486;51.956;5.888;2023-02-24T06:13:58;11.40;;;3.47;;
37641;SDS011;23486;51.956;5.888;2023-02-24T06:16:23;13.10;;;3.42;;
37641;SDS011;23486;51.956;5.888;2023-02-24T06:18:50;14.25;;;3.15;;
37641;SDS011;23486;51.956;5.888;2023-02-24T06:21:16;14.00;;;4.32;;
37641;SDS011;23486;51.956;5.888;2023-02-24T06:23:42;17.10;;;3.65;;
37641;SDS011;23486;51.956;5.888;2023-02-24T06:26:09;14.57;;;3.55;;
37641;SDS011;23486;51.956;5.888;2023-02-24T06:28:43;12.63;;;3.17;;
37641;SDS011;23486;51.956;5.888;2023-02-24T06:31:12;10.40;;;3.53;;
37641;SDS011;23486;51.956;5.888;2023-02-24T06:33:39;8.35;;;2.88;;
37641;SDS011;23486;51.956;5.888;2023-02-24T06:36:08;9.43;;;3.38;;
37641;SDS011;23486;51.956;5.888;2023-02-24T06:38:34;12.68;;;3.90;;
37641;SDS011;23486;51.956;5.888;2023-02-24T06:41:03;11.40;;;4.20;;
37641;SDS011;23486;51.956;5.888;2023-02-24T06:43:35;12.27;;;4.32;;
37641;SDS011;23486;51.956;5.888;2023-02-24T06:46:07;12.98;;;3.80;;
37641;SDS011;23486;51.956;5.888;2023-02-24T06:48:34;13.43;;;4.18;;
37641;SDS011;23486;51.956;5.888;2023-02-24T06:51:05;10.48;;;3.67;;
37641;SDS011;23486;51.956;5.888;2023-02-24T06:53:34;11.02;;;5.50;;
37641;SDS011;23486;51.956;5.888;2023-02-24T06:56:04;12.38;;;5.50;;
37641;SDS011;23486;51.956;5.888;2023-02-24T06:58:38;21.20;;;5.53;;
37641;SDS011;23486;51.956;5.888;2023-02-24T07:01:12;17.63;;;4.95;;
37641;SDS011;23486;51.956;5.888;2023-02-24T07:03:39;14.27;;;4.13;;
37641;SDS011;23486;51.956;5.888;2023-02-24T07:06:30;17.42;;;5.70;;
37641;SDS011;23486;51.956;5.888;2023-02-24T07:08:58;13.73;;;5.05;;
37641;SDS011;23486;51.956;5.888;2023-02-24T07:11:26;11.98;;;3.55;;
37641;SDS011;23486;51.956;5.888;2023-02-24T07:13:52;16.20;;;3.80;;
37641;SDS011;23486;51.956;5.888;2023-02-24T07:16:25;11.95;;;3.33;;
37641;SDS011;23486;51.956;5.888;2023-02-24T07:18:58;16.25;;;3.60;;
37641;SDS011;23486;51.956;5.888;2023-02-24T07:21:29;12.35;;;3.30;;
37641;SDS011;23486;51.956;5.888;2023-02-24T07:24:03;15.65;;;3.25;;
37641;SDS011;23486;51.956;5.888;2023-02-24T07:26:32;20.23;;;3.17;;
37641;SDS011;23486;51.956;5.888;2023-02-24T07:28:58;10.32;;;1.90;;
37641;SDS011;23486;51.956;5.888;2023-02-24T07:31:30;13.00;;;2.05;;
37641;SDS011;23486;51.956;5.888;2023-02-24T07:33:59;11.38;;;2.45;;
37641;SDS011;23486;51.956;5.888;2023-02-24T07:36:26;8.80;;;1.95;;
37641;SDS011;23486;51.956;5.888;2023-02-24T07:38:54;13.25;;;1.40;;
37641;SDS011;23486;51.956;5.888;2023-02-24T07:41:22;14.07;;;2.45;;
37641;SDS011;23486;51.956;5.888;2023-02-24T07:43:50;10.90;;;1.30;;
37641;SDS011;23486;51.956;5.888;2023-02-24T07:46:24;14.18;;;1.88;;
37641;SDS011;23486;51.956;5.888;2023-02-24T07:48:52;12.43;;;2.22;;
37641;SDS011;23486;51.956;5.888;2023-02-24T07:51:20;9.48;;;1.35;;
37641;SDS011;23486;51.956;5.888;2023-02-24T07:53:48;14.82;;;2.20;;
37641;SDS011;23486;51.956;5.888;2023-02-24T07:56:17;6.45;;;1.20;;
37641;SDS011;23486;51.956;5.888;2023-02-24T07:58:51;11.98;;;1.83;;
37641;SDS011;23486;51.956;5.888;2023-02-24T08:01:27;9.60;;;1.25;;
37641;SDS011;23486;51.956;5.888;2023-02-24T08:03:58;8.90;;;1.08;;
37641;SDS011;23486;51.956;5.888;2023-02-24T08:09:03;8.82;;;1.15;;
37641;SDS011;23486;51.956;5.888;2023-02-24T08:11:45;14.73;;;1.15;;
37641;SDS011;23486;51.956;5.888;2023-02-24T08:14:16;7.72;;;0.93;;
37641;SDS011;23486;51.956;5.888;2023-02-24T08:16:48;9.55;;;0.88;;
37641;SDS011;23486;51.956;5.888;2023-02-24T08:19:18;21.20;;;2.25;;
37641;SDS011;23486;51.956;5.888;2023-02-24T08:21:46;9.48;;;1.45;;
37641;SDS011;23486;51.956;5.888;2023-02-24T08:24:17;13.13;;;0.70;;
37641;SDS011;23486;51.956;5.888;2023-02-24T08:26:48;12.68;;;1.73;;
37641;SDS011;23486;51.956;5.888;2023-02-24T08:29:34;11.18;;;1.48;;
37641;SDS011;23486;51.956;5.888;2023-02-24T08:32:22;14.27;;;0.98;;
37641;SDS011;23486;51.956;5.888;2023-02-24T08:35:08;15.27;;;1.35;;
37641;SDS011;23486;51.956;5.888;2023-02-24T08:37:42;11.27;;;1.38;;
37641;SDS011;23486;51.956;5.888;2023-02-24T08:40:16;10.70;;;2.35;;
37641;SDS011;23486;51.956;5.888;2023-02-24T08:43:04;8.27;;;1.60;;
37641;SDS011;23486;51.956;5.888;2023-02-24T08:45:45;9.85;;;1.27;;
37641;SDS011;23486;51.956;5.888;2023-02-24T08:48:17;9.48;;;1.27;;
37641;SDS011;23486;51.956;5.888;2023-02-24T08:51:00;11.20;;;1.38;;
37641;SDS011;23486;51.956;5.888;2023-02-24T08:53:48;12.13;;;2.05;;
37641;SDS011;23486;51.956;5.888;2023-02-24T08:56:17;12.18;;;1.60;;
37641;SDS011;23486;51.956;5.888;2023-02-24T08:58:54;14.93;;;1.90;;
37641;SDS011;23486;51.956;5.888;2023-02-24T09:01:23;7.10;;;1.27;;
37641;SDS011;23486;51.956;5.888;2023-02-24T09:03:59;9.27;;;1.05;;
37641;SDS011;23486;51.956;5.888;2023-02-24T09:06:37;17.65;;;1.15;;
37641;SDS011;23486;51.956;5.888;2023-02-24T09:09:03;9.93;;;1.17;;
37641;SDS011;23486;51.956;5.888;2023-02-24T09:11:48;6.35;;;0.80;;
37641;SDS011;23486;51.956;5.888;2023-02-24T09:14:29;10.48;;;1.15;;
37641;SDS011;23486;51.956;5.888;2023-02-24T09:17:06;7.85;;;1.15;;
37641;SDS011;23486;51.956;5.888;2023-02-24T09:19:39;11.85;;;1.48;;
37641;SDS011;23486;51.956;5.888;2023-02-24T09:22:16;10.60;;;1.75;;
37641;SDS011;23486;51.956;5.888;2023-02-24T09:25:00;6.47;;;1.23;;
37641;SDS011;23486;51.956;5.888;2023-02-24T09:30:19;6.20;;;0.90;;
37641;SDS011;23486;51.956;5.888;2023-02-24T09:33:45;10.70;;;1.85;;
37641;SDS011;23486;51.956;5.888;2023-02-24T09:36:00;15.10;;;1.55;;
37641;SDS011;23486;51.956;5.888;2023-02-24T09:38:40;14.30;;;1.42;;
37641;SDS011;23486;51.956;5.888;2023-02-24T09:41:30;17.88;;;1.90;;
37641;SDS011;23486;51.956;5.888;2023-02-24T09:52:29;9.30;;;2.15;;
37641;SDS011;23486;51.956;5.888;2023-02-24T09:55:52;12.07;;;1.33;;
37641;SDS011;23486;51.956;5.888;2023-02-24T09:58:30;19.45;;;1.83;;
37641;SDS011;23486;51.956;5.888;2023-02-24T10:04:02;15.18;;;1.80;;
37641;SDS011;23486;51.956;5.888;2023-02-24T10:06:41;14.15;;;1.83;;
37641;SDS011;23486;51.956;5.888;2023-02-24T10:09:17;9.75;;;1.70;;
37641;SDS011;23486;51.956;5.888;2023-02-24T10:11:46;10.13;;;1.30;;
37641;SDS011;23486;51.956;5.888;2023-02-24T10:14:19;11.35;;;1.50;;
37641;SDS011;23486;51.956;5.888;2023-02-24T10:16:50;8.10;;;1.60;;
37641;SDS011;23486;51.956;5.888;2023-02-24T10:19:37;18.30;;;2.30;;
37641;SDS011;23486;51.956;5.888;2023-02-24T10:22:06;13.82;;;1.98;;
37641;SDS011;23486;51.956;5.888;2023-02-24T10:24:52;16.75;;;1.80;;
37641;SDS011;23486;51.956;5.888;2023-02-24T10:32:53;15.25;;;2.17;;
37641;SDS011;23486;51.956;5.888;2023-02-24T10:35:22;14.95;;;2.03;;
37641;SDS011;23486;51.956;5.888;2023-02-24T10:37:50;13.60;;;3.03;;
37641;SDS011;23486;51.956;5.888;2023-02-24T10:40:18;16.58;;;2.63;;
37641;SDS011;23486;51.956;5.888;2023-02-24T10:43:08;13.88;;;3.35;;
37641;SDS011;23486;51.956;5.888;2023-02-24T10:45:41;15.20;;;4.22;;
37641;SDS011;23486;51.956;5.888;2023-02-24T10:48:14;17.02;;;4.10;;
37641;SDS011;23486;51.956;5.888;2023-02-24T10:50:51;18.25;;;3.05;;
37641;SDS011;23486;51.956;5.888;2023-02-24T10:53:32;15.02;;;4.10;;
37641;SDS011;23486;51.956;5.888;2023-02-24T10:56:06;13.60;;;3.50;;
37641;SDS011;23486;51.956;5.888;2023-02-24T11:02:02;20.15;;;4.13;;
37641;SDS011;23486;51.956;5.888;2023-02-24T11:04:57;18.63;;;4.05;;
37641;SDS011;23486;51.956;5.888;2023-02-24T11:07:40;12.00;;;4.30;;
37641;SDS011;23486;51.956;5.888;2023-02-24T11:10:21;19.13;;;4.32;;
37641;SDS011;23486;51.956;5.888;2023-02-24T11:12:56;16.15;;;4.55;;
37641;SDS011;23486;51.956;5.888;2023-02-24T11:15:43;18.08;;;5.70;;
37641;SDS011;23486;51.956;5.888;2023-02-24T11:18:37;19.30;;;5.30;;
37641;SDS011;23486;51.956;5.888;2023-02-24T11:21:10;17.20;;;5.03;;
37641;SDS011;23486;51.956;5.888;2023-02-24T11:31:38;13.80;;;5.65;;
37641;SDS011;23486;51.956;5.888;2023-02-24T11:34:17;20.10;;;7.00;;
37641;SDS011;23486;51.956;5.888;2023-02-24T11:37:32;12.52;;;6.60;;
37641;SDS011;23486;51.956;5.888;2023-02-24T11:42:54;18.13;;;7.45;;
37641;SDS011;23486;51.956;5.888;2023-02-24T11:45:55;17.98;;;6.32;;
37641;SDS011;23486;51.956;5.888;2023-02-24T11:48:29;17.45;;;7.00;;
37641;SDS011;23486;51.956;5.888;2023-02-24T11:53:40;19.67;;;7.07;;
37641;SDS011;23486;51.956;5.888;2023-02-24T11:59:11;13.43;;;5.82;;
37641;SDS011;23486;51.956;5.888;2023-02-24T12:04:41;19.02;;;7.38;;
37641;SDS011;23486;51.956;5.888;2023-02-24T12:07:19;16.13;;;6.65;;
37641;SDS011;23486;51.956;5.888;2023-02-24T12:12:27;22.85;;;9.40;;
37641;SDS011;23486;51.956;5.888;2023-02-24T12:15:02;21.30;;;9.20;;
37641;SDS011;23486;51.956;5.888;2023-02-24T12:17:40;17.80;;;9.20;;
37641;SDS011;23486;51.956;5.888;2023-02-24T12:20:29;22.77;;;10.30;;
37641;SDS011;23486;51.956;5.888;2023-02-24T12:23:22;22.10;;;10.25;;
37641;SDS011;23486;51.956;5.888;2023-02-24T12:28:47;15.73;;;8.80;;
37641;SDS011;23486;51.956;5.888;2023-02-24T12:40:11;16.83;;;8.43;;
37641;SDS011;23486;51.956;5.888;2023-02-24T12:45:22;16.90;;;8.25;;
37641;SDS011;23486;51.956;5.888;2023-02-24T12:48:00;18.13;;;8.07;;
37641;SDS011;23486;51.956;5.888;2023-02-24T12:53:35;15.68;;;7.78;;
37641;SDS011;23486;51.956;5.888;2023-02-24T12:58:55;16.30;;;8.57;;
37641;SDS011;23486;51.956;5.888;2023-02-24T13:01:42;17.65;;;8.93;;
37641;SDS011;23486;51.956;5.888;2023-02-24T13:07:10;17.25;;;8.38;;
37641;SDS011;23486;51.956;5.888;2023-02-24T13:14:46;23.00;;;11.23;;
37641;SDS011;23486;51.956;5.888;2023-02-24T13:17:16;21.42;;;10.15;;
37641;SDS011;23486;51.956;5.888;2023-02-24T13:19:44;16.23;;;8.60;;
37641;SDS011;23486;51.956;5.888;2023-02-24T13:25:28;17.85;;;8.90;;
37641;SDS011;23486;51.956;5.888;2023-02-24T13:27:22;21.17;;;9.30;;
37641;SDS011;23486;51.956;5.888;2023-02-24T13:29:51;18.95;;;8.68;;
37641;SDS011;23486;51.956;5.888;2023-02-24T13:32:34;16.80;;;9.32;;
37641;SDS011;23486;51.956;5.888;2023-02-24T13:35:05;19.30;;;8.82;;
37641;SDS011;23486;51.956;5.888;2023-02-24T13:37:49;15.05;;;7.43;;
37641;SDS011;23486;51.956;5.888;2023-02-24T13:45:21;19.17;;;8.60;;
37641;SDS011;23486;51.956;5.888;2023-02-24T13:48:10;16.85;;;7.95;;
37641;SDS011;23486;51.956;5.888;2023-02-24T13:56:43;19.42;;;8.45;;
37641;SDS011;23486;51.956;5.888;2023-02-24T14:02:16;21.02;;;8.05;;
37641;SDS011;23486;51.956;5.888;2023-02-24T14:04:46;15.25;;;5.35;;
37641;SDS011;23486;51.956;5.888;2023-02-24T14:07:24;25.45;;;6.43;;
37641;SDS011;23486;51.956;5.888;2023-02-24T14:09:54;22.90;;;6.35;;
37641;SDS011;23486;51.956;5.888;2023-02-24T14:12:27;24.73;;;6.13;;
37641;SDS011;23486;51.956;5.888;2023-02-24T14:14:54;18.88;;;4.30;;
37641;SDS011;23486;51.956;5.888;2023-02-24T14:17:22;16.92;;;4.18;;
37641;SDS011;23486;51.956;5.888;2023-02-24T14:20:37;18.95;;;3.13;;
37641;SDS011;23486;51.956;5.888;2023-02-24T14:22:44;16.65;;;2.17;;
37641;SDS011;23486;51.956;5.888;2023-02-24T14:25:12;19.02;;;1.20;;
37641;SDS011;23486;51.956;5.888;2023-02-24T14:27:41;15.88;;;1.02;;
37641;SDS011;23486;51.956;5.888;2023-02-24T14:30:19;13.52;;;0.88;;
37641;SDS011;23486;51.956;5.888;2023-02-24T14:32:51;17.50;;;1.33;;
37641;SDS011;23486;51.956;5.888;2023-02-24T14:35:18;19.77;;;2.35;;
37641;SDS011;23486;51.956;5.888;2023-02-24T14:37:53;18.35;;;1.23;;
37641;SDS011;23486;51.956;5.888;2023-02-24T14:40:19;12.25;;;1.08;;
37641;SDS011;23486;51.956;5.888;2023-02-24T14:42:47;14.77;;;1.45;;
37641;SDS011;23486;51.956;5.888;2023-02-24T14:45:18;12.75;;;1.00;;
37641;SDS011;23486;51.956;5.888;2023-02-24T14:47:45;16.58;;;1.17;;
37641;SDS011;23486;51.956;5.888;2023-02-24T14:50:15;21.17;;;2.08;;
37641;SDS011;23486;51.956;5.888;2023-02-24T15:00:32;17.08;;;1.85;;
37641;SDS011;23486;51.956;5.888;2023-02-24T15:05:42;16.55;;;1.13;;
37641;SDS011;23486;51.956;5.888;2023-02-24T15:16:28;19.77;;;1.92;;
37641;SDS011;23486;51.956;5.888;2023-02-24T15:19:04;14.43;;;0.93;;
37641;SDS011;23486;51.956;5.888;2023-02-24T15:21:45;14.02;;;0.90;;
37641;SDS011;23486;51.956;5.888;2023-02-24T15:24:18;10.05;;;1.25;;
37641;SDS011;23486;51.956;5.888;2023-02-24T15:26:56;13.48;;;0.98;;
37641;SDS011;23486;51.956;5.888;2023-02-24T15:29:25;15.10;;;1.52;;
37641;SDS011;23486;51.956;5.888;2023-02-24T15:31:53;15.77;;;1.23;;
37641;SDS011;23486;51.956;5.888;2023-02-24T15:34:30;17.65;;;1.35;;
37641;SDS011;23486;51.956;5.888;2023-02-24T15:37:00;10.38;;;1.30;;
37641;SDS011;23486;51.956;5.888;2023-02-24T15:39:40;14.32;;;0.73;;
37641;SDS011;23486;51.956;5.888;2023-02-24T15:44:54;16.13;;;0.85;;
37641;SDS011;23486;51.956;5.888;2023-02-24T15:47:22;13.52;;;1.75;;
37641;SDS011;23486;51.956;5.888;2023-02-24T15:49:56;11.30;;;0.88;;
37641;SDS011;23486;51.956;5.888;2023-02-24T15:52:25;12.48;;;1.08;;
37641;SDS011;23486;51.956;5.888;2023-02-24T15:54:53;9.45;;;0.82;;
37641;SDS011;23486;51.956;5.888;2023-02-24T15:57:19;8.63;;;0.82;;
37641;SDS011;23486;51.956;5.888;2023-02-24T15:59:45;7.72;;;0.98;;
37641;SDS011;23486;51.956;5.888;2023-02-24T16:02:15;12.98;;;1.00;;
37641;SDS011;23486;51.956;5.888;2023-02-24T16:04:43;6.70;;;0.70;;
37641;SDS011;23486;51.956;5.888;2023-02-24T16:07:23;6.10;;;0.77;;
37641;SDS011;23486;51.956;5.888;2023-02-24T16:09:53;6.05;;;0.35;;
37641;SDS011;23486;51.956;5.888;2023-02-24T16:12:21;10.07;;;0.60;;
37641;SDS011;23486;51.956;5.888;2023-02-24T16:14:52;9.55;;;0.40;;
37641;SDS011;23486;51.956;5.888;2023-02-24T16:17:47;7.18;;;0.30;;
37641;SDS011;23486;51.956;5.888;2023-02-24T16:20:16;10.05;;;0.40;;
37641;SDS011;23486;51.956;5.888;2023-02-24T16:22:51;7.72;;;0.50;;
37641;SDS011;23486;51.956;5.888;2023-02-24T16:25:18;5.53;;;0.30;;
37641;SDS011;23486;51.956;5.888;2023-02-24T16:27:44;6.57;;;0.57;;
37641;SDS011;23486;51.956;5.888;2023-02-24T16:30:15;7.30;;;0.28;;
37641;SDS011;23486;51.956;5.888;2023-02-24T16:32:42;7.60;;;0.40;;
37641;SDS011;23486;51.956;5.888;2023-02-24T16:35:08;5.75;;;0.50;;
37641;SDS011;23486;51.956;5.888;2023-02-24T16:37:41;12.27;;;1.10;;
37641;SDS011;23486;51.956;5.888;2023-02-24T16:40:21;10.20;;;0.73;;
37641;SDS011;23486;51.956;5.888;2023-02-24T16:42:54;8.07;;;0.50;;
37641;SDS011;23486;51.956;5.888;2023-02-24T16:45:20;9.88;;;0.60;;
37641;SDS011;23486;51.956;5.888;2023-02-24T16:47:50;11.18;;;0.82;;
37641;SDS011;23486;51.956;5.888;2023-02-24T16:50:17;9.52;;;0.50;;
37641;SDS011;23486;51.956;5.888;2023-02-24T16:52:50;7.15;;;0.60;;
37641;SDS011;23486;51.956;5.888;2023-02-24T16:55:16;10.60;;;0.77;;
37641;SDS011;23486;51.956;5.888;2023-02-24T16:57:42;5.75;;;0.22;;
37641;SDS011;23486;51.956;5.888;2023-02-24T17:00:09;10.98;;;0.40;;
37641;SDS011;23486;51.956;5.888;2023-02-24T17:02:37;10.73;;;0.30;;
37641;SDS011;23486;51.956;5.888;2023-02-24T17:05:05;8.07;;;0.40;;
37641;SDS011;23486;51.956;5.888;2023-02-24T17:07:31;7.03;;;0.63;;
37641;SDS011;23486;51.956;5.888;2023-02-24T17:10:03;12.23;;;0.90;;
37641;SDS011;23486;51.956;5.888;2023-02-24T17:12:29;9.43;;;0.77;;
37641;SDS011;23486;51.956;5.888;2023-02-24T17:14:55;11.93;;;0.77;;
37641;SDS011;23486;51.956;5.888;2023-02-24T17:17:22;11.13;;;0.65;;
37641;SDS011;23486;51.956;5.888;2023-02-24T17:19:48;9.40;;;0.63;;
37641;SDS011;23486;51.956;5.888;2023-02-24T17:22:15;14.88;;;0.70;;
37641;SDS011;23486;51.956;5.888;2023-02-24T17:24:46;10.93;;;1.50;;
37641;SDS011;23486;51.956;5.888;2023-02-24T17:27:12;11.73;;;1.23;;
37641;SDS011;23486;51.956;5.888;2023-02-24T17:29:38;13.98;;;0.88;;
37641;SDS011;23486;51.956;5.888;2023-02-24T17:32:04;9.57;;;0.63;;
37641;SDS011;23486;51.956;5.888;2023-02-24T17:34:29;15.35;;;1.00;;
37641;SDS011;23486;51.956;5.888;2023-02-24T17:36:58;13.73;;;1.10;;
37641;SDS011;23486;51.956;5.888;2023-02-24T17:39:23;8.48;;;0.60;;
37641;SDS011;23486;51.956;5.888;2023-02-24T17:41:49;16.10;;;1.10;;
37641;SDS011;23486;51.956;5.888;2023-02-24T17:44:15;9.68;;;0.90;;
37641;SDS011;23486;51.956;5.888;2023-02-24T17:46:40;11.05;;;0.90;;
37641;SDS011;23486;51.956;5.888;2023-02-24T17:49:06;10.40;;;0.90;;